Time;durP1;ratioP1;P1;durP2;ratioP2;P2;SDS_P1;SDS_P2;PMS_P1;PMS_P2;Temp;Humidity;BMP_temperature;BMP_pressure;BME280_temperature;BME280_humidity;BME280_pressure;Samples;Min_cycle;Max_cycle;Signal;HPM_P1;HPM_P2
2024/04/07 00:00:37;;;;;;;6.37;2.03;;;6.60;99.90;;;;;;1916958;74;25313;-89
2024/04/07 00:03:25;;;;;;;8.13;2.40;;;6.60;99.90;;;;;;1916972;74;25784;-88
2024/04/07 00:06:14;;;;;;;8.17;2.23;;;6.70;99.90;;;;;;1916002;74;25276;-88
2024/04/07 00:09:02;;;;;;;6.37;1.83;;;6.80;99.90;;;;;;1912138;74;25292;-88
2024/04/07 00:11:51;;;;;;;12.97;2.23;;;6.80;99.90;;;;;;1911142;74;25523;-89
2024/04/07 00:14:39;;;;;;;5.17;1.87;;;6.90;99.90;;;;;;1917205;74;26426;-89
2024/04/07 00:20:43;;;;;;;5.73;1.97;;;7.00;99.90;;;;;;1969059;71;27124;-88
2024/04/07 00:26:16;;;;;;;6.00;1.70;;;7.10;99.90;;;;;;1942939;71;27608;-89
2024/04/07 00:29:05;;;;;;;7.60;2.30;;;7.10;99.90;;;;;;1881334;75;25728;-88
2024/04/07 00:31:53;;;;;;;6.57;1.73;;;7.20;99.90;;;;;;1911413;75;25728;-88
2024/04/07 00:34:42;;;;;;;4.37;2.17;;;7.20;99.90;;;;;;1908702;75;25800;-88
2024/04/07 00:37:31;;;;;;;5.93;2.13;;;7.20;99.90;;;;;;1890939;75;25321;-88
2024/04/07 00:40:20;;;;;;;6.70;2.30;;;7.20;99.90;;;;;;1879651;75;25819;-88
2024/04/07 00:43:09;;;;;;;8.37;2.40;;;7.20;99.90;;;;;;1889269;73;25173;-88
2024/04/07 00:45:59;;;;;;;14.10;2.60;;;7.20;99.90;;;;;;1887276;73;25310;-88
2024/04/07 00:48:48;;;;;;;7.13;2.00;;;7.10;99.90;;;;;;1906035;73;25269;-88
2024/04/07 00:51:37;;;;;;;10.70;2.20;;;7.10;99.90;;;;;;1891065;75;25204;-88
2024/04/07 00:54:26;;;;;;;10.90;2.43;;;7.00;99.90;;;;;;1908019;73;25328;-88
2024/04/07 00:57:15;;;;;;;9.93;2.67;;;6.90;99.90;;;;;;1944202;73;25709;-88
2024/04/07 01:00:05;;;;;;;12.17;2.50;;;6.90;99.90;;;;;;1925309;73;25201;-88
2024/04/07 01:05:43;;;;;;;13.30;2.43;;;6.90;99.90;;;;;;1971432;71;27493;-88
2024/04/07 01:11:19;;;;;;;8.07;2.53;;;6.80;99.90;;;;;;1953753;72;27094;-88
2024/04/07 01:14:07;;;;;;;12.27;3.00;;;6.70;99.90;;;;;;1940699;73;25217;-87
2024/04/07 01:16:56;;;;;;;8.30;2.20;;;6.70;99.90;;;;;;1943709;72;25285;-87
2024/04/07 01:19:45;;;;;;;7.30;2.10;;;6.70;99.90;;;;;;1938645;72;25295;-89
2024/04/07 01:22:33;;;;;;;11.83;2.10;;;6.80;99.90;;;;;;1923758;72;25328;-89
2024/04/07 01:25:22;;;;;;;7.83;2.73;;;6.80;99.90;;;;;;1932253;72;25345;-87
2024/04/07 01:28:12;;;;;;;9.17;2.07;;;6.90;99.90;;;;;;1926650;73;25213;-88
2024/04/07 01:31:01;;;;;;;8.17;2.07;;;6.90;99.90;;;;;;1921550;72;25642;-87
2024/04/07 01:33:50;;;;;;;14.97;2.50;;;6.80;99.90;;;;;;1931563;73;25229;-87
2024/04/07 01:36:39;;;;;;;6.87;2.57;;;6.80;99.90;;;;;;1938620;72;25228;-87
2024/04/07 01:39:28;;;;;;;11.90;2.43;;;6.70;99.90;;;;;;1942554;72;25661;-88
2024/04/07 01:45:37;;;;;;;9.40;2.30;;;6.90;99.90;;;;;;1984802;71;26954;-88
2024/04/07 01:48:26;;;;;;;14.20;3.13;;;7.00;99.90;;;;;;2032312;69;25200;-88
2024/04/07 01:51:14;;;;;;;16.13;2.37;;;6.90;99.90;;;;;;2033141;69;25698;-88
2024/04/07 01:54:03;;;;;;;10.63;2.33;;;6.90;99.90;;;;;;2033729;69;25261;-88
2024/04/07 01:59:43;;;;;;;11.00;3.07;;;6.70;99.90;;;;;;1941230;72;27570;-88
2024/04/07 02:02:32;;;;;;;12.07;3.73;;;6.70;99.90;;;;;;1934103;72;25697;-88
2024/04/07 02:05:21;;;;;;;10.33;2.83;;;6.80;99.90;;;;;;1929599;72;25327;-88
2024/04/07 02:08:09;;;;;;;13.30;3.27;;;6.80;99.90;;;;;;1928840;72;25167;-88
2024/04/07 02:10:58;;;;;;;14.00;3.30;;;6.90;99.90;;;;;;1934613;72;25174;-88
2024/04/07 02:13:47;;;;;;;15.10;2.97;;;6.90;99.90;;;;;;1931911;72;25731;-88
2024/04/07 02:16:35;;;;;;;23.00;3.17;;;6.90;99.90;;;;;;1933878;72;25666;-88
2024/04/07 02:19:24;;;;;;;9.13;2.93;;;6.90;99.90;;;;;;1931232;72;25317;-89
2024/04/07 02:22:12;;;;;;;18.03;3.73;;;6.90;99.90;;;;;;1936862;73;25225;-89
2024/04/07 02:25:01;;;;;;;19.47;3.50;;;6.90;99.90;;;;;;1924484;72;25724;-88
2024/04/07 02:27:50;;;;;;;12.67;3.30;;;6.90;99.90;;;;;;1932851;72;25210;-88
2024/04/07 02:33:23;;;;;;;15.40;4.10;;;6.80;99.90;;;;;;2023421;69;26987;-88
2024/04/07 02:36:11;;;;;;;19.37;3.57;;;6.90;99.90;;;;;;1997298;70;25233;-88
2024/04/07 02:41:40;;;;;;;25.87;4.47;;;7.20;99.90;;;;;;1926618;72;27142;-88
2024/04/07 02:50:53;;;;;;;15.97;4.10;;;7.00;99.90;;;;;;1896081;73;25666;-87
2024/04/07 02:53:42;;;;;;;19.60;4.20;;;7.00;99.90;;;;;;1891507;74;25341;-86
2024/04/07 02:56:30;;;;;;;12.50;4.00;;;7.10;99.90;;;;;;1852291;74;25237;-86
2024/04/07 02:59:18;;;;;;;18.80;4.33;;;7.30;99.90;;;;;;1885724;74;25218;-87
2024/04/07 03:02:07;;;;;;;19.70;4.60;;;7.30;99.90;;;;;;1890588;74;25331;-88
2024/04/07 03:04:56;;;;;;;13.63;4.13;;;7.30;99.90;;;;;;1871296;74;25317;-89
2024/04/07 03:07:46;;;;;;;18.93;4.70;;;7.40;99.90;;;;;;1876289;74;25234;-89
2024/04/07 03:10:34;;;;;;;19.47;4.00;;;7.50;99.90;;;;;;1863199;74;25279;-89
2024/04/07 03:16:13;;;;;;;20.30;4.20;;;7.60;99.90;;;;;;1947629;72;27000;-89
2024/04/07 03:19:02;;;;;;;19.40;4.20;;;7.60;99.90;;;;;;1930112;72;25278;-88
2024/04/07 03:21:50;;;;;;;17.03;4.33;;;7.50;99.90;;;;;;1938198;72;25286;-87
2024/04/07 03:24:39;;;;;;;16.07;4.20;;;7.40;99.90;;;;;;1940159;72;25742;-87
2024/04/07 03:27:28;;;;;;;18.80;5.10;;;7.40;99.90;;;;;;1946799;73;25219;-87
2024/04/07 03:30:16;;;;;;;19.37;4.60;;;7.40;99.90;;;;;;1942399;72;25721;-87
2024/04/07 03:36:02;;;;;;;13.23;4.83;;;7.50;99.90;;;;;;1943739;72;26954;-88
2024/04/07 03:38:50;;;;;;;25.63;4.83;;;7.40;99.90;;;;;;1931665;73;25731;-88
2024/04/07 03:41:39;;;;;;;17.37;4.50;;;7.60;99.90;;;;;;1916190;75;25204;-88
2024/04/07 03:44:28;;;;;;;12.23;4.70;;;7.60;99.90;;;;;;1937883;73;25213;-88
2024/04/07 03:47:16;;;;;;;16.50;5.10;;;7.60;99.90;;;;;;1930285;73;25277;-87
2024/04/07 03:50:07;;;;;;;22.17;5.27;;;7.40;99.90;;;;;;1928545;73;25205;-88
2024/04/07 03:52:55;;;;;;;19.73;5.07;;;7.30;99.90;;;;;;1933266;73;25250;-87
2024/04/07 03:55:44;;;;;;;18.23;5.00;;;7.20;99.90;;;;;;1912239;74;25251;-87
2024/04/07 03:58:33;;;;;;;15.93;5.03;;;6.90;99.90;;;;;;1903065;74;25169;-87
2024/04/07 04:04:04;;;;;;;19.87;5.47;;;6.70;99.90;;;;;;1949133;72;27746;-88
2024/04/07 04:06:53;;;;;;;12.73;4.97;;;6.70;99.90;;;;;;1929308;73;25279;-87
2024/04/07 04:12:28;;;;;;;23.00;5.47;;;6.70;99.90;;;;;;2022167;69;27072;-88
2024/04/07 04:15:16;;;;;;;17.07;4.80;;;6.70;99.90;;;;;;2020476;71;25201;-88
2024/04/07 04:18:06;;;;;;;13.53;5.03;;;6.70;99.90;;;;;;2008072;71;25161;-88
2024/04/07 04:20:54;;;;;;;18.27;5.53;;;6.70;99.90;;;;;;2002966;71;25321;-88
2024/04/07 04:23:43;;;;;;;17.23;5.70;;;6.50;99.90;;;;;;2001571;71;25174;-88
2024/04/07 04:26:32;;;;;;;16.20;5.20;;;6.40;99.90;;;;;;1992821;71;25213;-88
2024/04/07 04:29:21;;;;;;;18.20;5.23;;;6.30;99.90;;;;;;1995223;71;25244;-88
2024/04/07 04:32:12;;;;;;;19.07;4.93;;;6.20;99.90;;;;;;2002526;71;25213;-88
2024/04/07 04:35:00;;;;;;;20.80;5.60;;;6.00;99.90;;;;;;1993658;71;25238;-88
2024/04/07 04:37:49;;;;;;;15.60;4.97;;;6.00;99.90;;;;;;1994938;71;25159;-88
2024/04/07 04:40:38;;;;;;;22.93;5.90;;;5.90;99.90;;;;;;1994550;71;25748;-88
2024/04/07 04:43:27;;;;;;;16.07;5.03;;;6.00;99.90;;;;;;2008247;71;25234;-88
2024/04/07 04:46:16;;;;;;;20.10;5.23;;;6.10;99.90;;;;;;1994368;71;25267;-88
2024/04/07 04:49:13;;;;;;;16.73;5.30;;;6.10;99.90;;;;;;1994670;71;25186;-88
2024/04/07 04:52:02;;;;;;;16.80;5.33;;;6.10;99.90;;;;;;2014199;70;25652;-88
2024/04/07 04:54:51;;;;;;;12.07;5.20;;;6.20;99.90;;;;;;1998504;71;25744;-88
2024/04/07 05:00:33;;;;;;;21.47;4.77;;;6.60;99.90;;;;;;1956582;72;27123;-88
2024/04/07 05:03:21;;;;;;;14.87;5.20;;;6.60;99.90;;;;;;1937211;72;25340;-88
2024/04/07 05:06:12;;;;;;;14.30;4.97;;;6.40;99.90;;;;;;1927701;73;25288;-89
2024/04/07 05:11:45;;;;;;;15.77;5.23;;;6.30;99.90;;;;;;1947346;72;27068;-88
2024/04/07 05:14:34;;;;;;;11.93;4.80;;;6.30;99.90;;;;;;1940629;73;25347;-89
2024/04/07 05:17:22;;;;;;;13.97;4.60;;;6.70;99.90;;;;;;1930486;73;25813;-87
2024/04/07 05:20:11;;;;;;;14.30;4.37;;;7.00;99.90;;;;;;1937243;73;25137;-88
2024/04/07 05:23:00;;;;;;;13.40;4.07;;;7.20;99.90;;;;;;1917435;73;25315;-88
2024/04/07 05:25:48;;;;;;;15.13;5.10;;;7.30;99.90;;;;;;1928284;73;25250;-88
2024/04/07 05:28:37;;;;;;;12.97;3.93;;;7.30;99.90;;;;;;1919277;73;25171;-88
2024/04/07 05:31:25;;;;;;;16.47;4.27;;;7.30;99.90;;;;;;1924723;73;25229;-87
2024/04/07 05:34:14;;;;;;;12.53;3.80;;;7.30;99.90;;;;;;1925736;73;25202;-88
2024/04/07 05:37:06;;;;;;;14.03;3.80;;;7.30;99.90;;;;;;1923479;73;25207;-88
2024/04/07 05:39:59;;;;;;;17.23;4.23;;;7.30;99.90;;;;;;1920213;73;25296;-88
2024/04/07 05:42:53;;;;;;;13.83;4.00;;;7.40;99.90;;;;;;1939624;73;25311;-88
2024/04/07 05:45:42;;;;;;;11.57;4.00;;;7.40;99.90;;;;;;1927075;73;25278;-88
2024/04/07 05:48:35;;;;;;;12.30;4.00;;;7.30;99.90;;;;;;1920797;73;25199;-88
2024/04/07 05:51:28;;;;;;;28.07;4.27;;;7.10;99.90;;;;;;1921533;73;25742;-88
2024/04/07 05:54:17;;;;;;;10.63;3.67;;;7.10;99.90;;;;;;1887227;75;25321;-89
2024/04/07 05:57:08;;;;;;;8.23;3.60;;;7.00;99.90;;;;;;1904018;73;25669;-88
2024/04/07 05:59:57;;;;;;;13.67;4.27;;;6.90;99.90;;;;;;1906060;74;25678;-87
2024/04/07 06:02:45;;;;;;;15.20;3.83;;;6.80;99.90;;;;;;1905526;74;25381;-88
2024/04/07 06:08:22;;;;;;;11.00;3.77;;;6.70;99.90;;;;;;1950534;72;27068;-88
2024/04/07 06:11:10;;;;;;;13.27;4.23;;;6.50;99.90;;;;;;1925133;73;25310;-87
2024/04/07 06:13:59;;;;;;;10.17;4.10;;;6.40;99.90;;;;;;1925864;73;25310;-87
2024/04/07 06:16:48;;;;;;;8.60;3.47;;;6.30;99.90;;;;;;1928636;73;25262;-87
2024/04/07 06:19:36;;;;;;;9.63;3.70;;;6.40;99.90;;;;;;1927762;73;25233;-87
2024/04/07 06:22:26;;;;;;;11.07;3.87;;;6.40;99.90;;;;;;1930092;73;25292;-87
2024/04/07 06:25:14;;;;;;;9.77;3.87;;;6.40;99.90;;;;;;1926343;73;25230;-87
2024/04/07 06:28:03;;;;;;;14.97;3.90;;;6.40;99.90;;;;;;1931966;73;25211;-87
2024/04/07 06:30:51;;;;;;;13.27;3.77;;;6.40;99.90;;;;;;1930908;73;25232;-87
2024/04/07 06:36:33;;;;;;;13.87;3.50;;;6.40;99.90;;;;;;1956573;72;27554;-88
2024/04/07 06:39:22;;;;;;;8.23;3.70;;;6.40;99.90;;;;;;1922085;73;25326;-88
2024/04/07 06:42:11;;;;;;;7.77;3.30;;;6.60;99.90;;;;;;1930683;73;25240;-88
2024/04/07 06:45:01;;;;;;;15.40;3.93;;;6.70;99.90;;;;;;1916491;75;25293;-88
2024/04/07 06:47:49;;;;;;;7.10;3.47;;;6.80;99.90;;;;;;1916694;73;25294;-87
2024/04/07 06:50:38;;;;;;;13.23;3.37;;;7.10;99.90;;;;;;1917526;73;25246;-87
2024/04/07 06:53:27;;;;;;;11.17;3.40;;;7.30;99.90;;;;;;1916085;73;25238;-86
2024/04/07 07:12:28;;;;;;;11.87;3.23;;;7.90;99.90;;;;;;1910940;74;27096;-89
2024/04/07 07:15:18;;;;;;;10.33;3.40;;;8.00;99.90;;;;;;1871383;75;25274;-89
2024/04/07 07:20:49;;;;;;;12.20;3.20;;;8.20;99.90;;;;;;1944180;72;27066;-89
2024/04/07 07:23:38;;;;;;;9.90;4.13;;;8.20;99.90;;;;;;1927416;73;25254;-89
2024/04/07 07:26:26;;;;;;;15.10;3.80;;;8.20;99.90;;;;;;1926745;73;25254;-89
2024/04/07 07:29:17;;;;;;;15.00;3.87;;;8.00;99.90;;;;;;1924982;73;25240;-90
2024/04/07 07:32:07;;;;;;;10.23;3.30;;;8.00;99.90;;;;;;1927368;73;25282;-89
2024/04/07 07:34:56;;;;;;;14.30;3.73;;;7.90;99.90;;;;;;1929032;73;25230;-89
2024/04/07 07:37:44;;;;;;;11.50;3.47;;;7.80;99.90;;;;;;1924405;73;25208;-89
2024/04/07 07:43:13;;;;;;;7.33;3.40;;;7.90;99.90;;;;;;1931711;72;27580;-89
2024/04/07 07:48:48;;;;;;;10.53;3.13;;;7.80;99.90;;;;;;1946381;71;26877;-89
2024/04/07 07:54:58;;;;;;;14.17;3.17;;;7.90;99.90;;;;;;1967091;71;26354;-89
2024/04/07 07:57:48;;;;;;;14.20;2.80;;;8.00;99.90;;;;;;1989871;72;25609;-88
2024/04/07 08:00:37;;;;;;;4.70;2.63;;;7.90;99.90;;;;;;1968562;72;25205;-87
2024/04/07 08:03:25;;;;;;;11.53;3.20;;;7.80;99.90;;;;;;1971881;72;25250;-88
2024/04/07 08:06:17;;;;;;;9.20;2.90;;;7.70;99.90;;;;;;1988020;72;26475;-89
2024/04/07 08:09:10;;;;;;;12.17;3.50;;;7.70;99.90;;;;;;1981003;70;25199;-88
2024/04/07 08:11:59;;;;;;;6.50;2.83;;;7.70;99.90;;;;;;1974056;72;25207;-88
2024/04/07 08:14:48;;;;;;;7.30;2.40;;;7.60;99.90;;;;;;1975396;72;25216;-88
2024/04/07 08:17:37;;;;;;;11.27;2.70;;;7.60;99.90;;;;;;1978051;72;25235;-88
2024/04/07 08:20:26;;;;;;;8.57;2.87;;;7.70;99.90;;;;;;1971505;72;25303;-89
2024/04/07 08:28:17;;;;;;;12.73;2.97;;;7.70;99.90;;;;;;1963509;71;27164;-89
2024/04/07 08:31:10;;;;;;;9.53;3.10;;;7.70;99.90;;;;;;1921661;73;25711;-89
2024/04/07 08:33:59;;;;;;;15.50;2.80;;;7.70;99.90;;;;;;1926650;73;25247;-90
2024/04/07 08:36:48;;;;;;;8.87;2.03;;;7.70;99.90;;;;;;1921835;73;25160;-90
2024/04/07 08:39:37;;;;;;;10.07;2.37;;;7.50;99.90;;;;;;1920279;73;25812;-90
2024/04/07 08:42:27;;;;;;;7.63;1.70;;;7.60;99.90;;;;;;1925121;74;25809;-90
2024/04/07 08:45:19;;;;;;;12.27;2.50;;;7.60;99.90;;;;;;1923317;74;25247;-90
2024/04/07 08:48:11;;;;;;;4.43;1.73;;;7.50;99.90;;;;;;1921178;73;25253;-90
2024/04/07 08:51:00;;;;;;;6.93;2.10;;;7.50;99.90;;;;;;1897137;74;25305;-91
2024/04/07 08:53:49;;;;;;;11.23;2.20;;;7.50;99.90;;;;;;1861551;74;26146;-90
2024/04/07 08:56:39;;;;;;;9.43;2.20;;;7.50;99.90;;;;;;1915712;74;25234;-92
2024/04/07 08:59:31;;;;;;;3.80;1.87;;;7.50;99.90;;;;;;1883386;75;25653;-91
2024/04/07 09:02:20;;;;;;;10.60;2.07;;;7.70;99.90;;;;;;1896396;74;25149;-87
2024/04/07 09:07:51;;;;;;;2.70;1.80;;;7.90;99.90;;;;;;1944373;72;27072;-89
2024/04/07 09:10:40;;;;;;;8.03;1.97;;;8.10;99.90;;;;;;1906719;75;25240;-88
2024/04/07 09:16:08;;;;;;;13.07;2.57;;;8.20;99.90;;;;;;1945694;72;27059;-89
2024/04/07 09:18:57;;;;;;;4.60;2.00;;;7.50;99.90;;;;;;1905669;73;25615;-88
2024/04/07 09:21:46;;;;;;;5.97;2.07;;;7.70;99.90;;;;;;1847082;76;25370;-88
2024/04/07 09:24:36;;;;;;;3.60;1.80;;;8.00;99.90;;;;;;1875667;74;25226;-87
2024/04/07 09:27:24;;;;;;;3.57;1.90;;;8.20;99.90;;;;;;1916693;73;25761;-88
2024/04/07 09:30:15;;;;;;;4.17;1.70;;;8.30;99.90;;;;;;1917819;73;25263;-87
2024/04/07 09:33:04;;;;;;;4.53;1.63;;;8.30;99.90;;;;;;1881090;75;25840;-87
2024/04/07 09:35:53;;;;;;;3.07;1.70;;;8.20;99.90;;;;;;1834809;76;25912;-87
2024/04/07 09:38:42;;;;;;;3.07;2.17;;;8.00;99.90;;;;;;1838502;78;25185;-87
2024/04/07 09:41:32;;;;;;;4.93;1.73;;;7.70;99.90;;;;;;1830747;78;25241;-87
2024/04/07 09:44:22;;;;;;;4.23;1.90;;;7.60;99.90;;;;;;1843832;76;25754;-86
2024/04/07 09:47:11;;;;;;;2.47;1.50;;;7.50;99.90;;;;;;1903017;73;25797;-86
2024/04/07 09:50:04;;;;;;;2.27;1.60;;;7.60;99.90;;;;;;1907708;73;25250;-88
2024/04/07 09:52:55;;;;;;;1.70;1.27;;;7.70;99.90;;;;;;1916187;73;25309;-88
2024/04/07 09:55:45;;;;;;;2.47;1.40;;;7.90;99.90;;;;;;1892839;75;25200;-89
2024/04/07 09:58:34;;;;;;;1.40;1.30;;;7.80;99.90;;;;;;1903072;75;25333;-91
2024/04/07 10:04:07;;;;;;;2.10;1.50;;;8.00;99.90;;;;;;2014246;69;27626;-90
2024/04/07 10:06:59;;;;;;;1.90;1.30;;;7.90;99.90;;;;;;1950764;72;25292;-89
2024/04/07 10:09:50;;;;;;;1.77;1.30;;;7.90;99.90;;;;;;1958585;72;25183;-89
2024/04/07 10:12:37;;;;;;;1.53;1.20;;;8.00;99.90;;;;;;1969428;72;25220;-90
2024/04/07 10:18:15;;;;;;;1.70;0.90;;;8.30;99.90;;;;;;1944855;72;27582;-89
2024/04/07 10:21:06;;;;;;;1.63;1.10;;;8.50;99.90;;;;;;1920936;73;25253;-89
2024/04/07 10:23:55;;;;;;;1.03;0.90;;;8.40;99.90;;;;;;1860546;75;25715;-90
2024/04/07 10:26:52;;;;;;;1.57;1.07;;;8.30;99.90;;;;;;1875779;75;25246;-91
2024/04/07 10:29:41;;;;;;;1.03;1.00;;;8.30;99.90;;;;;;1869869;76;25226;-88
2024/04/07 10:32:32;;;;;;;0.97;0.90;;;8.40;99.90;;;;;;1875162;75;25293;-88
2024/04/07 10:35:22;;;;;;;1.00;1.00;;;8.30;99.90;;;;;;1864751;75;25268;-87
2024/04/07 10:38:12;;;;;;;4.10;1.23;;;8.20;99.90;;;;;;1855928;75;25232;-87
2024/04/07 10:41:01;;;;;;;3.53;0.77;;;8.20;99.90;;;;;;1844710;77;25268;-88
2024/04/07 10:43:51;;;;;;;1.27;0.90;;;8.40;99.90;;;;;;1909998;73;25731;-88
2024/04/07 10:46:39;;;;;;;1.13;1.10;;;8.40;99.90;;;;;;1896023;73;25339;-88
2024/04/07 10:49:28;;;;;;;2.10;1.20;;;8.30;99.90;;;;;;1862629;75;25251;-88
2024/04/07 10:52:19;;;;;;;2.23;1.30;;;8.40;99.90;;;;;;1843939;76;25239;-88
2024/04/07 10:55:07;;;;;;;2.00;1.20;;;8.50;99.90;;;;;;1884651;75;25281;-89
2024/04/07 10:57:56;;;;;;;1.97;1.10;;;8.60;99.90;;;;;;1894246;75;25234;-92
2024/04/07 11:00:44;;;;;;;3.00;1.03;;;8.60;99.90;;;;;;1902615;75;25288;-91
2024/04/07 11:03:36;;;;;;;5.30;1.50;;;8.70;99.90;;;;;;1894564;75;25223;-90
2024/04/07 11:06:25;;;;;;;7.53;1.50;;;8.80;99.90;;;;;;1891969;75;25739;-90
2024/04/07 11:11:56;;;;;;;7.80;2.47;;;8.80;99.90;;;;;;1933545;72;27065;-90
2024/04/07 11:14:44;;;;;;;3.83;1.40;;;9.20;99.90;;;;;;1914310;75;25299;-88
2024/04/07 11:17:33;;;;;;;4.50;1.67;;;9.40;99.90;;;;;;1916357;74;25218;-89
2024/04/07 11:20:23;;;;;;;8.70;1.37;;;9.40;99.90;;;;;;1906921;75;25779;-90
2024/04/07 11:25:57;;;;;;;6.37;1.80;;;9.60;99.90;;;;;;1847083;75;27194;-89
2024/04/07 11:31:34;;;;;;;12.93;2.90;;;10.10;99.90;;;;;;1952795;72;27017;-89
2024/04/07 11:34:25;;;;;;;12.00;3.90;;;10.40;99.90;;;;;;1895572;74;25193;-89
2024/04/07 11:37:14;;;;;;;19.10;3.33;;;10.60;99.90;;;;;;1849514;76;25265;-87
2024/04/07 11:40:02;;;;;;;12.40;3.80;;;10.70;99.90;;;;;;1899926;75;25767;-89
2024/04/07 11:42:50;;;;;;;11.73;2.50;;;10.50;99.90;;;;;;1861685;76;25282;-89
2024/04/07 11:45:40;;;;;;;11.30;3.70;;;10.50;99.90;;;;;;1884570;75;25238;-89
2024/04/07 11:48:29;;;;;;;4.80;1.60;;;10.50;99.90;;;;;;1831941;76;25264;-89
2024/04/07 11:51:17;;;;;;;13.43;2.40;;;10.40;99.90;;;;;;1883851;75;25782;-87
2024/04/07 11:54:06;;;;;;;17.40;2.27;;;10.30;99.90;;;;;;1818398;77;25921;-89
2024/04/07 11:56:55;;;;;;;14.50;2.60;;;10.40;99.90;;;;;;1880354;75;25187;-89
2024/04/07 12:02:28;;;;;;;15.33;2.63;;;10.60;99.90;;;;;;1946944;72;27550;-86
2024/04/07 12:05:17;;;;;;;12.40;2.40;;;10.70;99.90;;;;;;1876759;75;25654;-88
2024/04/07 12:08:07;;;;;;;16.10;2.43;;;11.00;99.90;;;;;;1877460;75;25917;-88
2024/04/07 12:13:36;;;;;;;12.80;2.30;;;11.40;99.90;;;;;;1945436;72;27043;-89
2024/04/07 12:16:24;;;;;;;20.67;3.27;;;11.50;99.90;;;;;;1909290;75;25885;-88
2024/04/07 12:19:14;;;;;;;16.03;2.70;;;11.80;99.90;;;;;;1886951;75;25541;-87
2024/04/07 12:22:03;;;;;;;14.43;2.50;;;12.00;99.90;;;;;;1914999;75;25206;-87
2024/04/07 12:24:52;;;;;;;21.73;2.80;;;12.10;99.90;;;;;;1906506;75;25671;-88
2024/04/07 12:27:41;;;;;;;18.27;2.40;;;11.90;99.90;;;;;;1905707;75;25762;-88
2024/04/07 12:30:30;;;;;;;15.60;2.77;;;12.00;99.90;;;;;;1886749;75;25301;-88
2024/04/07 12:33:18;;;;;;;14.17;2.67;;;11.70;99.90;;;;;;1891807;75;25281;-87
2024/04/07 12:36:09;;;;;;;13.90;2.20;;;11.80;99.90;;;;;;1893355;75;25381;-89
2024/04/07 12:39:04;;;;;;;18.37;2.60;;;11.60;99.90;;;;;;1845316;77;26361;-86
2024/04/07 12:44:28;;;;;;;15.37;2.93;;;11.70;99.90;;;;;;1921048;72;27043;-87
2024/04/07 12:47:20;;;;;;;19.40;2.60;;;11.80;99.90;;;;;;1914712;73;25286;-88
2024/04/07 12:52:50;;;;;;;14.73;2.20;;;11.70;99.90;;;;;;1946678;72;27206;-88
2024/04/07 12:55:39;;;;;;;25.93;4.10;;;11.70;99.90;;;;;;1882756;75;25329;-88
2024/04/07 12:58:28;;;;;;;20.77;2.97;;;11.60;99.90;;;;;;1854014;76;25310;-88
2024/04/07 13:03:55;;;;;;;12.03;2.37;;;11.70;99.90;;;;;;1942032;72;27032;-88
2024/04/07 13:06:45;;;;;;;23.67;3.00;;;11.90;99.90;;;;;;1898761;75;25352;-89
2024/04/07 13:09:34;;;;;;;14.80;2.83;;;11.70;99.90;;;;;;1895205;75;25249;-89
2024/04/07 13:12:22;;;;;;;17.63;3.00;;;11.70;99.90;;;;;;1901176;75;25222;-87
2024/04/07 13:15:13;;;;;;;22.17;3.03;;;11.50;99.90;;;;;;1831187;77;25308;-87
2024/04/07 13:20:42;;;;;;;19.93;2.97;;;11.00;99.90;;;;;;1954038;72;27360;-87
2024/04/07 13:26:17;;;;;;;12.03;2.50;;;10.70;99.90;;;;;;2010976;69;27484;-89
2024/04/07 13:29:05;;;;;;;21.10;2.60;;;10.70;99.90;;;;;;1988377;71;25306;-88
2024/04/07 13:31:54;;;;;;;27.70;3.33;;;10.80;99.90;;;;;;2016527;71;25128;-88
2024/04/07 13:34:42;;;;;;;26.60;3.80;;;11.20;99.90;;;;;;2017764;71;25268;-88
2024/04/07 13:37:31;;;;;;;20.97;3.03;;;11.40;99.90;;;;;;1982898;71;25302;-88
2024/04/07 13:40:21;;;;;;;15.03;2.40;;;11.50;99.90;;;;;;1982553;71;25203;-89
2024/04/07 13:43:12;;;;;;;16.77;3.10;;;11.50;99.90;;;;;;1987364;71;25706;-87
2024/04/07 13:46:00;;;;;;;19.07;2.80;;;11.40;99.90;;;;;;1984545;71;25814;-88
2024/04/07 13:48:49;;;;;;;17.00;3.00;;;11.40;99.90;;;;;;1918374;74;25608;-87
2024/04/07 13:51:38;;;;;;;24.30;2.90;;;11.40;99.90;;;;;;1988444;71;25215;-87
2024/04/07 13:57:12;;;;;;;27.40;3.13;;;11.30;99.90;;;;;;1958751;72;27086;-89
2024/04/07 14:02:47;;;;;;;19.00;2.53;;;11.50;99.90;;;;;;1973256;71;26980;-89
2024/04/07 14:05:37;;;;;;;15.87;1.93;;;11.50;99.90;;;;;;1972632;71;25692;-89
2024/04/07 14:12:16;;;;;;;13.87;2.33;;;11.20;99.90;;;;;;1933197;74;27603;-88
2024/04/07 14:15:06;;;;;;;20.77;3.80;;;11.40;99.90;;;;;;1922435;74;25207;-87
2024/04/07 14:20:48;;;;;;;15.17;2.63;;;11.20;99.90;;;;;;1941334;72;27530;-89
2024/04/07 14:23:36;;;;;;;14.87;2.23;;;11.20;99.90;;;;;;1918295;73;25838;-90
2024/04/07 14:29:11;;;;;;;16.73;2.90;;;11.10;99.90;;;;;;2027852;69;27514;-89
2024/04/07 14:31:59;;;;;;;17.97;2.37;;;11.00;99.90;;;;;;1998889;70;25922;-87
2024/04/07 14:34:47;;;;;;;18.13;3.17;;;11.00;99.90;;;;;;1998125;70;25227;-88
2024/04/07 14:37:36;;;;;;;18.53;2.57;;;10.90;99.90;;;;;;1997049;70;25192;-89
2024/04/07 14:40:25;;;;;;;13.23;2.23;;;10.80;99.90;;;;;;2008738;70;25236;-89
2024/04/07 14:45:58;;;;;;;16.60;2.30;;;10.70;99.90;;;;;;1935509;72;27076;-89
2024/04/07 14:48:48;;;;;;;12.27;2.00;;;10.70;99.90;;;;;;1904174;75;25762;-89
2024/04/07 14:51:37;;;;;;;18.30;2.80;;;10.60;99.90;;;;;;1896812;75;25272;-89
2024/04/07 14:54:26;;;;;;;23.37;3.17;;;10.70;99.90;;;;;;1866699;76;25313;-89
2024/04/07 14:57:14;;;;;;;12.03;2.37;;;10.80;99.90;;;;;;1896424;75;25265;-89
2024/04/07 15:00:03;;;;;;;21.57;3.00;;;10.80;99.90;;;;;;1904596;75;25262;-90
2024/04/07 15:02:51;;;;;;;25.20;2.57;;;10.80;99.90;;;;;;1905981;75;25739;-89
2024/04/07 15:08:19;;;;;;;19.60;2.70;;;10.90;99.90;;;;;;1952290;72;27012;-87
2024/04/07 15:13:48;;;;;;;16.07;2.20;;;11.00;99.90;;;;;;1948264;72;26958;-87
2024/04/07 15:16:37;;;;;;;14.73;2.53;;;10.90;99.90;;;;;;1916467;75;25296;-90
2024/04/07 15:19:26;;;;;;;12.70;2.37;;;10.90;99.90;;;;;;1928730;73;25812;-88
2024/04/07 15:22:15;;;;;;;17.37;2.37;;;10.80;99.90;;;;;;1927782;73;25277;-88
2024/04/07 15:25:04;;;;;;;12.47;2.30;;;10.90;99.90;;;;;;1924931;73;25245;-89
2024/04/07 15:27:52;;;;;;;15.13;2.47;;;10.50;99.90;;;;;;1922211;73;25327;-89
2024/04/07 15:30:41;;;;;;;11.07;2.20;;;10.30;99.90;;;;;;1934611;73;25704;-89
2024/04/07 15:33:29;;;;;;;19.97;2.70;;;10.30;99.90;;;;;;1924710;73;25240;-88
2024/04/07 15:36:18;;;;;;;17.13;2.40;;;10.40;99.90;;;;;;1925633;73;25259;-88
2024/04/07 15:39:06;;;;;;;14.67;2.53;;;10.60;99.90;;;;;;1926333;73;25202;-88
2024/04/07 15:41:55;;;;;;;12.23;2.03;;;10.70;99.90;;;;;;1928059;73;25866;-88
2024/04/07 15:44:44;;;;;;;14.27;2.60;;;10.70;99.90;;;;;;1943018;73;25250;-87
2024/04/07 15:47:34;;;;;;;14.90;2.57;;;10.60;99.90;;;;;;1932083;73;25619;-88
2024/04/07 15:53:02;;;;;;;14.57;2.27;;;10.50;99.90;;;;;;1923404;72;27504;-88
2024/04/07 15:58:38;;;;;;;17.70;3.00;;;10.70;99.90;;;;;;1932011;72;28312;-89
2024/04/07 16:01:28;;;;;;;17.63;2.63;;;10.60;99.90;;;;;;1910023;73;25175;-88
2024/04/07 16:04:20;;;;;;;16.57;2.47;;;10.50;99.90;;;;;;1873116;76;25266;-89
2024/04/07 16:09:49;;;;;;;14.67;2.10;;;10.30;99.90;;;;;;1925728;72;27063;-89
2024/04/07 16:12:38;;;;;;;15.30;2.97;;;10.20;99.90;;;;;;1906736;73;25249;-89
2024/04/07 16:15:27;;;;;;;12.37;1.83;;;10.10;99.90;;;;;;1876187;75;25261;-89
2024/04/07 16:18:16;;;;;;;15.77;2.40;;;10.00;99.90;;;;;;1838015;76;25258;-88
2024/04/07 16:21:06;;;;;;;19.50;2.77;;;10.00;99.90;;;;;;1869642;76;25618;-86
2024/04/07 16:23:55;;;;;;;15.30;2.50;;;10.10;99.90;;;;;;1919563;73;25305;-86
2024/04/07 16:29:26;;;;;;;21.30;2.93;;;9.90;99.90;;;;;;1943364;72;27591;-88
2024/04/07 16:32:14;;;;;;;16.43;2.37;;;9.70;99.90;;;;;;1924846;73;25249;-88
2024/04/07 16:35:03;;;;;;;15.37;1.97;;;9.60;99.90;;;;;;1919836;73;25225;-88
2024/04/07 16:37:51;;;;;;;16.13;2.80;;;9.50;99.90;;;;;;1931056;73;25239;-88
2024/04/07 16:40:40;;;;;;;18.77;3.50;;;9.50;99.90;;;;;;1923196;73;25257;-89
2024/04/07 16:43:28;;;;;;;18.10;2.53;;;9.30;99.90;;;;;;1917895;73;25226;-89
2024/04/07 16:46:16;;;;;;;17.40;2.53;;;9.30;99.90;;;;;;1936756;73;25297;-89
2024/04/07 16:49:05;;;;;;;23.47;2.97;;;9.10;99.90;;;;;;1928487;73;25694;-88
2024/04/07 16:51:53;;;;;;;17.50;2.23;;;8.80;99.90;;;;;;1926181;73;26557;-88
2024/04/07 16:54:42;;;;;;;16.57;2.60;;;8.40;99.90;;;;;;1920968;73;25668;-88
2024/04/07 17:00:16;;;;;;;12.57;2.57;;;8.30;99.90;;;;;;1939133;72;27458;-88
2024/04/07 17:03:06;;;;;;;17.00;2.17;;;8.20;99.90;;;;;;1894528;74;25301;-88
2024/04/07 17:05:55;;;;;;;16.07;2.60;;;8.20;99.90;;;;;;1852959;76;25348;-88
2024/04/07 17:08:48;;;;;;;12.20;2.60;;;8.20;99.90;;;;;;1893573;75;25290;-88
2024/04/07 17:14:29;;;;;;;20.70;2.90;;;7.80;99.90;;;;;;1946659;72;27503;-88
2024/04/07 17:17:19;;;;;;;13.37;2.30;;;7.70;99.90;;;;;;1937651;73;25141;-88
2024/04/07 17:20:09;;;;;;;17.27;2.00;;;7.60;99.90;;;;;;1932702;73;25273;-88
2024/04/07 17:22:57;;;;;;;17.10;2.73;;;7.80;99.90;;;;;;1923204;73;25193;-88